createdAt,value
2022-12-27T00:01:11.228Z,2.90
2022-12-27T00:03:38.916Z,3.28
2022-12-27T00:06:08.635Z,3.67
2022-12-27T00:08:36.345Z,3.75
2022-12-27T00:11:09.006Z,3.42
2022-12-27T00:13:38.333Z,2.63
2022-12-27T00:16:07.440Z,3.58
2022-12-27T00:18:35.310Z,2.33
2022-12-27T00:21:04.911Z,2.90
2022-12-27T00:23:34.223Z,3.00
2022-12-27T00:26:02.760Z,3.55
2022-12-27T00:28:31.422Z,2.90
2022-12-27T00:31:02.044Z,2.95
2022-12-27T00:33:31.554Z,2.30
2022-12-27T00:35:59.813Z,3.00
2022-12-27T00:38:27.813Z,3.35
2022-12-27T00:40:55.631Z,2.63
2022-12-27T00:43:23.339Z,2.83
2022-12-27T00:45:51.085Z,2.95
2022-12-27T00:48:20.134Z,2.67
2022-12-27T00:50:47.882Z,2.08
2022-12-27T00:53:16.024Z,2.63
2022-12-27T00:55:44.339Z,2.83
2022-12-27T00:58:12.154Z,2.47
2022-12-27T01:00:39.865Z,2.65
2022-12-27T01:03:07.509Z,2.28
2022-12-27T01:05:38.817Z,2.30
2022-12-27T01:08:07.079Z,1.92
2022-12-27T01:10:34.997Z,2.20
2022-12-27T01:13:02.892Z,2.03
2022-12-27T01:15:31.123Z,1.98
2022-12-27T01:17:58.766Z,2.30
2022-12-27T01:20:26.434Z,2.47
2022-12-27T01:22:55.992Z,2.50
2022-12-27T01:25:23.696Z,2.30
2022-12-27T01:27:51.461Z,2.40
2022-12-27T01:30:19.239Z,2.20
2022-12-27T01:32:46.902Z,2.05
2022-12-27T01:35:14.614Z,1.92
2022-12-27T01:37:42.349Z,2.10
2022-12-27T01:40:12.527Z,2.35
2022-12-27T01:42:55.521Z,2.30
2022-12-27T01:45:24.742Z,2.60
2022-12-27T01:47:57.926Z,2.67
2022-12-27T01:50:30.368Z,2.60
2022-12-27T01:53:04.935Z,2.28
2022-12-27T01:55:38.224Z,2.80
2022-12-27T01:58:11.229Z,2.70
2022-12-27T02:00:40.626Z,2.30
2022-12-27T02:03:08.530Z,2.40
2022-12-27T02:05:41.670Z,2.80
2022-12-27T02:08:20.553Z,2.70
2022-12-27T02:10:51.394Z,2.95
2022-12-27T02:13:20.416Z,2.88
2022-12-27T02:15:48.380Z,2.85
2022-12-27T02:18:17.148Z,2.45
2022-12-27T02:21:14.957Z,3.42
2022-12-27T02:24:04.759Z,2.28
2022-12-27T02:26:53.005Z,3.05
2022-12-27T02:29:57.514Z,2.63
2022-12-27T02:32:31.526Z,3.10
2022-12-27T02:35:07.466Z,2.92
2022-12-27T02:37:40.129Z,2.63
2022-12-27T02:40:28.727Z,3.08
2022-12-27T02:43:15.088Z,2.90
2022-12-27T02:48:50.097Z,3.15
2022-12-27T02:51:56.518Z,3.13
2022-12-27T02:54:41.784Z,2.72
2022-12-27T02:57:19.396Z,3.10
2022-12-27T03:00:28.569Z,3.58
2022-12-27T03:03:23.983Z,3.28
2022-12-27T03:06:37.349Z,2.85
2022-12-27T03:09:37.682Z,3.83
2022-12-27T03:12:26.285Z,4.05
2022-12-27T03:15:17.328Z,3.90
2022-12-27T03:17:52.160Z,3.40
2022-12-27T03:20:40.509Z,3.55
2022-12-27T03:23:27.265Z,3.60
2022-12-27T03:25:57.640Z,3.50
2022-12-27T03:28:43.443Z,3.38
2022-12-27T03:31:34.194Z,4.68
2022-12-27T03:34:27.139Z,3.95
2022-12-27T03:37:17.095Z,3.47
2022-12-27T03:39:50.975Z,3.83
2022-12-27T03:42:42.116Z,3.58
2022-12-27T03:45:11.041Z,3.83
2022-12-27T03:47:43.868Z,3.95
2022-12-27T03:50:16.864Z,3.05
2022-12-27T03:52:49.741Z,4.15
2022-12-27T03:55:18.771Z,3.60
2022-12-27T03:57:46.532Z,3.95
2022-12-27T04:00:15.308Z,3.60
2022-12-27T04:02:44.696Z,3.42
2022-12-27T04:05:13.097Z,3.45
2022-12-27T04:07:54.701Z,3.70
2022-12-27T04:10:41.193Z,4.15
2022-12-27T04:13:26.642Z,3.95
2022-12-27T04:16:12.236Z,4.00
2022-12-27T04:18:57.702Z,3.70
2022-12-27T04:21:42.678Z,3.73
2022-12-27T04:24:28.487Z,3.50
2022-12-27T04:27:15.134Z,4.32
2022-12-27T04:30:00.199Z,3.22
2022-12-27T04:32:45.271Z,3.42
2022-12-27T04:35:12.986Z,3.20
2022-12-27T04:37:40.640Z,3.90
2022-12-27T04:40:27.093Z,4.40
2022-12-27T04:43:13.712Z,4.03
2022-12-27T04:45:58.851Z,4.05
2022-12-27T04:48:56.045Z,4.43
2022-12-27T04:51:41.423Z,3.70
2022-12-27T04:54:33.938Z,3.50
2022-12-27T04:57:01.675Z,4.38
2022-12-27T04:59:48.368Z,4.47
2022-12-27T05:02:17.567Z,5.03
2022-12-27T05:04:46.372Z,5.07
2022-12-27T05:07:33.055Z,5.38
2022-12-27T05:10:21.175Z,5.97
2022-12-27T05:13:06.461Z,5.80
2022-12-27T05:15:35.627Z,6.40
2022-12-27T05:18:03.319Z,6.07
2022-12-27T05:20:30.968Z,6.10
2022-12-27T05:23:16.354Z,6.53
2022-12-27T05:25:45.852Z,6.33
2022-12-27T05:28:14.524Z,7.00
2022-12-27T05:30:45.035Z,6.45
2022-12-27T05:33:13.072Z,6.85
2022-12-27T05:35:41.085Z,7.05
2022-12-27T05:38:09.233Z,6.90
2022-12-27T05:40:37.168Z,6.80
2022-12-27T05:43:05.340Z,7.47
2022-12-27T05:45:34.087Z,6.70
2022-12-27T05:48:03.148Z,7.53
2022-12-27T05:50:30.824Z,6.72
2022-12-27T05:53:10.734Z,6.25
2022-12-27T05:55:38.575Z,6.90
2022-12-27T05:58:07.624Z,6.75
2022-12-27T06:00:35.281Z,6.97
2022-12-27T06:03:04.668Z,6.55
2022-12-27T06:05:32.525Z,7.80
2022-12-27T06:08:00.315Z,7.03
2022-12-27T06:10:27.982Z,7.93
2022-12-27T06:12:55.635Z,6.15
2022-12-27T06:15:23.352Z,7.88
2022-12-27T06:17:51.030Z,8.23
2022-12-27T06:20:20.515Z,7.35
2022-12-27T06:22:49.058Z,7.68
2022-12-27T06:25:16.895Z,7.40
2022-12-27T06:27:45.700Z,7.88
2022-12-27T06:30:15.311Z,7.65
2022-12-27T06:32:43.067Z,7.20
2022-12-27T06:35:11.710Z,8.65
2022-12-27T06:37:41.780Z,8.32
2022-12-27T06:40:10.762Z,8.90
2022-12-27T06:42:38.460Z,8.38
2022-12-27T06:45:09.321Z,7.93
2022-12-27T06:47:37.293Z,8.55
2022-12-27T06:50:05.589Z,7.78
2022-12-27T06:52:33.258Z,9.13
2022-12-27T06:55:02.302Z,8.68
2022-12-27T06:57:29.943Z,7.10
2022-12-27T06:59:57.630Z,8.75
2022-12-27T07:02:25.358Z,7.72
2022-12-27T07:04:53.632Z,8.40
2022-12-27T07:07:21.339Z,8.10
2022-12-27T07:09:49.090Z,7.88
2022-12-27T07:12:18.328Z,7.40
2022-12-27T07:14:46.018Z,6.18
2022-12-27T07:17:13.719Z,7.65
2022-12-27T07:19:41.395Z,7.47
2022-12-27T07:22:09.341Z,6.95
2022-12-27T07:24:36.991Z,7.50
2022-12-27T07:27:05.182Z,7.45
2022-12-27T07:29:34.209Z,7.30
2022-12-27T07:32:02.019Z,6.90
2022-12-27T07:34:29.792Z,7.28
2022-12-27T07:36:57.465Z,6.75
2022-12-27T07:39:25.207Z,6.88
2022-12-27T07:41:52.913Z,7.40
2022-12-27T07:44:20.569Z,7.20
2022-12-27T07:46:49.988Z,7.75
2022-12-27T07:49:18.259Z,7.45
2022-12-27T07:51:46.080Z,7.93
2022-12-27T07:54:13.775Z,6.45
2022-12-27T07:56:41.490Z,7.18
2022-12-27T07:59:12.625Z,7.93
2022-12-27T08:02:03.711Z,7.68
2022-12-27T08:04:34.734Z,7.00
2022-12-27T08:07:06.081Z,7.90
2022-12-27T08:09:38.637Z,6.97
2022-12-27T08:12:07.176Z,7.43
2022-12-27T08:14:34.906Z,6.28
2022-12-27T08:17:07.107Z,6.65
2022-12-27T08:19:36.204Z,6.47
2022-12-27T08:22:05.151Z,6.03
2022-12-27T08:24:33.326Z,6.35
2022-12-27T08:27:01.020Z,5.90
2022-12-27T08:29:28.862Z,5.57
2022-12-27T08:31:56.544Z,6.18
2022-12-27T08:34:24.351Z,4.65
2022-12-27T08:36:55.494Z,5.50
2022-12-27T08:39:24.247Z,5.97
2022-12-27T08:41:53.712Z,6.72
2022-12-27T08:44:21.555Z,5.90
2022-12-27T08:46:49.688Z,6.50
2022-12-27T08:49:17.360Z,6.22
2022-12-27T08:51:45.041Z,6.28
2022-12-27T08:54:14.040Z,6.40
2022-12-27T08:56:41.753Z,6.97
2022-12-27T08:59:09.457Z,6.75
2022-12-27T09:01:37.515Z,7.22
2022-12-27T09:04:05.594Z,8.70
2022-12-27T09:06:33.443Z,8.05
2022-12-27T09:09:01.411Z,7.68
2022-12-27T09:11:33.468Z,7.97
2022-12-27T09:14:03.177Z,7.88
2022-12-27T09:16:31.417Z,7.68
2022-12-27T09:19:01.048Z,9.18
2022-12-27T09:21:31.623Z,8.90
2022-12-27T09:23:59.949Z,7.93
2022-12-27T09:26:30.732Z,8.05
2022-12-27T09:28:59.859Z,9.48
2022-12-27T09:31:28.214Z,9.00
2022-12-27T09:33:56.601Z,7.30
2022-12-27T09:36:26.934Z,7.35
2022-12-27T09:38:56.849Z,9.20
2022-12-27T09:42:34.118Z,9.25
2022-12-27T09:44:36.262Z,8.13
2022-12-27T09:47:11.699Z,8.40
2022-12-27T09:49:43.417Z,8.95
2022-12-27T09:52:17.358Z,9.07
2022-12-27T09:55:02.632Z,9.13
2022-12-27T09:57:38.743Z,8.63
2022-12-27T10:00:15.664Z,7.50
2022-12-27T10:02:44.965Z,7.72
2022-12-27T10:05:21.624Z,7.80
2022-12-27T10:08:02.387Z,8.00
2022-12-27T10:10:41.941Z,7.25
2022-12-27T10:13:25.338Z,6.63
2022-12-27T10:16:01.816Z,6.82
2022-12-27T10:18:41.080Z,7.65
2022-12-27T10:21:20.009Z,5.75
2022-12-27T10:23:53.988Z,6.68
2022-12-27T10:26:22.646Z,7.97
2022-12-27T10:28:57.567Z,7.68
2022-12-27T10:31:26.773Z,7.55
2022-12-27T10:33:55.268Z,7.68
2022-12-27T10:36:25.974Z,7.82
2022-12-27T10:38:54.508Z,8.10
2022-12-27T10:41:33.547Z,7.20
2022-12-27T10:44:02.631Z,7.32
2022-12-27T10:46:33.629Z,7.72
2022-12-27T10:49:20.515Z,7.60
2022-12-27T10:51:50.629Z,7.65
2022-12-27T10:54:23.505Z,6.93
2022-12-27T10:56:51.744Z,7.55
2022-12-27T10:59:23.411Z,8.00
2022-12-27T11:02:15.817Z,8.43
2022-12-27T11:04:57.803Z,8.13
2022-12-27T11:07:30.907Z,7.55
2022-12-27T11:10:08.225Z,7.78
2022-12-27T11:12:36.530Z,7.28
2022-12-27T11:15:17.645Z,7.10
2022-12-27T11:17:47.354Z,9.43
2022-12-27T11:20:22.217Z,7.90
2022-12-27T11:22:53.384Z,9.18
2022-12-27T11:25:22.108Z,10.27
2022-12-27T11:27:52.974Z,8.77
2022-12-27T11:30:30.000Z,10.10
2022-12-27T11:33:01.599Z,8.45
2022-12-27T11:35:29.686Z,10.05
2022-12-27T11:37:57.657Z,10.45
2022-12-27T11:40:30.465Z,10.93
2022-12-27T11:43:06.238Z,10.63
2022-12-27T11:45:42.027Z,9.93
2022-12-27T11:48:21.868Z,11.05
2022-12-27T11:51:01.610Z,9.00
2022-12-27T11:54:00.013Z,10.20
2022-12-27T11:56:28.696Z,8.95
2022-12-27T11:59:25.864Z,9.85
2022-12-27T12:02:27.132Z,11.05
2022-12-27T12:05:32.667Z,10.05
2022-12-27T12:08:27.890Z,9.65
2022-12-27T12:11:07.171Z,9.90
2022-12-27T12:14:18.411Z,7.80
2022-12-27T12:17:03.672Z,9.48
2022-12-27T12:20:01.692Z,8.90
2022-12-27T12:22:44.076Z,8.13
2022-12-27T12:25:36.378Z,8.40
2022-12-27T12:31:40.164Z,8.90
2022-12-27T12:34:27.966Z,7.55
2022-12-27T12:37:19.023Z,9.02
2022-12-27T12:40:04.787Z,8.05
2022-12-27T12:42:41.992Z,8.45
2022-12-27T12:45:31.121Z,8.50
2022-12-27T12:48:27.540Z,8.00
2022-12-27T12:51:14.700Z,7.72
2022-12-27T12:54:00.406Z,7.85
2022-12-27T12:56:46.253Z,8.02
2022-12-27T12:59:29.279Z,8.45
2022-12-27T13:02:13.432Z,7.63
2022-12-27T13:05:01.700Z,7.75
2022-12-27T13:07:44.118Z,7.75
2022-12-27T13:10:52.701Z,6.82
2022-12-27T13:13:27.324Z,7.30
2022-12-27T13:16:11.495Z,6.68
2022-12-27T13:18:48.157Z,6.72
2022-12-27T13:24:02.092Z,6.80
2022-12-27T13:26:40.652Z,5.57
2022-12-27T13:29:43.521Z,6.03
2022-12-27T13:32:23.504Z,6.00
2022-12-27T13:35:01.766Z,6.40
2022-12-27T13:37:41.992Z,6.03
2022-12-27T13:40:35.566Z,5.43
2022-12-27T13:43:30.443Z,5.47
2022-12-27T13:46:17.239Z,5.22
2022-12-27T13:49:00.230Z,5.63
2022-12-27T13:51:44.847Z,4.57
2022-12-27T13:54:37.647Z,4.90
2022-12-27T13:57:28.729Z,5.43
2022-12-27T14:00:09.141Z,4.05
2022-12-27T14:03:21.410Z,4.22
2022-12-27T14:06:06.946Z,4.05
2022-12-27T14:08:56.707Z,5.35
2022-12-27T14:11:36.141Z,4.85
2022-12-27T14:14:05.749Z,4.47
2022-12-27T14:16:52.134Z,4.53
2022-12-27T14:19:43.470Z,5.10
2022-12-27T14:22:39.955Z,4.60
2022-12-27T14:25:37.146Z,3.97
2022-12-27T14:28:38.364Z,4.57
2022-12-27T14:31:32.549Z,4.75
2022-12-27T14:34:42.787Z,5.10
2022-12-27T14:37:34.522Z,4.32
2022-12-27T14:40:21.711Z,4.70
2022-12-27T14:43:28.631Z,4.88
2022-12-27T14:46:38.126Z,4.20
2022-12-27T14:49:43.058Z,5.32
2022-12-27T14:52:54.180Z,4.93
2022-12-27T14:55:35.897Z,4.63
2022-12-27T14:58:28.577Z,4.50
2022-12-27T15:01:10.396Z,4.50
2022-12-27T15:03:54.640Z,5.20
2022-12-27T15:06:41.230Z,4.60
2022-12-27T15:09:12.582Z,5.00
2022-12-27T15:11:55.679Z,3.75
2022-12-27T15:14:36.792Z,4.10
2022-12-27T15:17:17.854Z,3.90
2022-12-27T15:20:06.994Z,3.47
2022-12-27T15:22:49.494Z,2.70
2022-12-27T15:25:26.579Z,3.20
2022-12-27T15:28:01.655Z,3.10
2022-12-27T15:30:41.055Z,3.60
2022-12-27T15:33:17.630Z,2.90
2022-12-27T15:38:41.034Z,3.38
2022-12-27T15:41:30.964Z,3.10
2022-12-27T15:44:20.082Z,3.78
2022-12-27T15:47:12.097Z,3.88
2022-12-27T15:49:51.591Z,3.80
2022-12-27T15:52:27.631Z,3.38
2022-12-27T15:55:22.595Z,3.30
2022-12-27T15:58:15.203Z,3.67
2022-12-27T16:00:44.396Z,3.53
2022-12-27T16:03:35.326Z,3.63
2022-12-27T16:06:04.622Z,3.70
2022-12-27T16:08:35.306Z,3.72
2022-12-27T16:11:08.014Z,4.32
2022-12-27T16:13:43.010Z,4.45
2022-12-27T16:16:34.922Z,4.78
2022-12-27T16:19:18.010Z,4.30
2022-12-27T16:21:47.456Z,4.25
2022-12-27T16:24:19.968Z,4.70
2022-12-27T16:26:55.806Z,4.57
2022-12-27T16:29:28.737Z,4.68
2022-12-27T16:32:17.024Z,3.55
2022-12-27T16:34:48.561Z,4.30
2022-12-27T16:37:25.878Z,4.32
2022-12-27T16:40:29.124Z,4.80
2022-12-27T16:43:25.027Z,4.45
2022-12-27T16:46:00.461Z,4.30
2022-12-27T16:48:44.281Z,5.82
2022-12-27T16:51:28.285Z,4.65
2022-12-27T16:54:05.292Z,5.35
2022-12-27T16:56:34.159Z,4.80
2022-12-27T16:59:02.000Z,5.30
2022-12-27T17:01:47.003Z,4.90
2022-12-27T17:04:47.823Z,5.03
2022-12-27T17:07:42.054Z,4.88
2022-12-27T17:10:35.030Z,4.82
2022-12-27T17:13:11.557Z,5.40
2022-12-27T17:18:27.225Z,5.05
2022-12-27T17:21:03.091Z,4.07
2022-12-27T17:23:32.598Z,4.13
2022-12-27T17:26:25.149Z,4.78
2022-12-27T17:29:04.112Z,3.90
2022-12-27T17:31:40.336Z,5.43
2022-12-27T17:34:16.684Z,3.70
2022-12-27T17:36:56.909Z,4.72
2022-12-27T17:39:50.214Z,4.57
2022-12-27T17:42:44.001Z,5.00
2022-12-27T17:45:22.845Z,4.40
2022-12-27T17:48:04.776Z,3.67
2022-12-27T17:50:32.971Z,3.90
2022-12-27T17:53:37.113Z,3.70
2022-12-27T17:56:39.554Z,3.53
2022-12-27T17:59:10.630Z,4.22
2022-12-27T18:01:44.707Z,4.00
2022-12-27T18:04:21.211Z,3.83
2022-12-27T18:06:49.139Z,3.53
2022-12-27T18:09:31.788Z,3.28
2022-12-27T18:12:01.411Z,3.22
2022-12-27T18:14:31.197Z,3.00
2022-12-27T18:16:58.964Z,3.60
2022-12-27T18:19:30.639Z,3.50
2022-12-27T18:22:00.413Z,3.78
2022-12-27T18:24:30.576Z,2.95
2022-12-27T18:27:04.335Z,2.97
2022-12-27T18:29:32.672Z,3.05
2022-12-27T18:32:05.074Z,2.70
2022-12-27T18:34:38.162Z,3.13
2022-12-27T18:37:09.457Z,3.03
2022-12-27T18:39:40.008Z,2.22
2022-12-27T18:42:17.984Z,2.13
2022-12-27T18:44:49.043Z,2.42
2022-12-27T18:47:21.215Z,2.35
2022-12-27T18:49:54.255Z,2.60
2022-12-27T18:52:26.098Z,2.95
2022-12-27T18:54:54.878Z,2.35
2022-12-27T18:57:37.593Z,2.42
2022-12-27T19:00:16.763Z,2.38
2022-12-27T19:02:44.885Z,2.45
2022-12-27T19:05:28.374Z,2.08
2022-12-27T19:08:01.550Z,2.38
2022-12-27T19:10:33.395Z,2.40
2022-12-27T19:13:03.407Z,2.15
2022-12-27T19:15:41.039Z,2.20
2022-12-27T19:18:23.066Z,2.10
2022-12-27T19:20:57.141Z,1.98
2022-12-27T19:23:32.284Z,2.25
2022-12-27T19:26:07.384Z,1.77
2022-12-27T19:28:36.610Z,2.30
2022-12-27T19:31:22.563Z,2.00
2022-12-27T19:33:55.475Z,2.10
2022-12-27T19:36:27.399Z,2.00
2022-12-27T19:38:57.183Z,1.95
2022-12-27T19:41:25.107Z,1.90
2022-12-27T19:43:55.295Z,2.53
2022-12-27T19:46:30.570Z,2.80
2022-12-27T19:51:47.030Z,2.65
2022-12-27T19:54:18.661Z,2.55
2022-12-27T19:56:46.463Z,2.10
2022-12-27T19:59:19.195Z,3.45
2022-12-27T20:01:47.204Z,3.13
2022-12-27T20:04:15.664Z,2.65
2022-12-27T20:06:44.708Z,2.60
2022-12-27T20:09:15.859Z,2.33
2022-12-27T20:11:44.039Z,2.40
2022-12-27T20:14:13.073Z,2.80
2022-12-27T20:16:42.565Z,2.50
2022-12-27T20:19:11.136Z,2.35
2022-12-27T20:21:40.314Z,2.17
2022-12-27T20:24:10.564Z,2.70
2022-12-27T20:26:38.633Z,2.38
2022-12-27T20:29:06.603Z,2.22
2022-12-27T20:31:40.497Z,2.05
2022-12-27T20:34:13.818Z,2.40
2022-12-27T20:36:41.917Z,3.08
2022-12-27T20:39:09.873Z,2.78
2022-12-27T20:41:38.247Z,2.58
2022-12-27T20:44:07.342Z,2.65
2022-12-27T20:46:35.112Z,2.47
2022-12-27T20:49:03.218Z,2.35
2022-12-27T20:51:33.281Z,2.50
2022-12-27T20:54:03.584Z,2.40
2022-12-27T20:56:31.829Z,2.30
2022-12-27T20:59:01.411Z,2.45
2022-12-27T21:01:29.197Z,2.42
2022-12-27T21:03:57.636Z,2.22
2022-12-27T21:06:27.764Z,2.38
2022-12-27T21:08:58.559Z,2.17
2022-12-27T21:11:30.225Z,2.15
2022-12-27T21:14:01.328Z,2.60
2022-12-27T21:16:31.078Z,2.33
2022-12-27T21:19:04.549Z,2.03
2022-12-27T21:21:34.094Z,2.17
2022-12-27T21:24:03.644Z,2.72
2022-12-27T21:26:35.314Z,1.92
2022-12-27T21:29:04.939Z,2.30
2022-12-27T21:31:32.933Z,2.53
2022-12-27T21:34:00.893Z,2.67
2022-12-27T21:36:31.175Z,2.13
2022-12-27T21:38:59.632Z,2.80
2022-12-27T21:41:30.855Z,2.60
2022-12-27T21:44:02.542Z,2.00
2022-12-27T21:46:32.631Z,2.50
2022-12-27T21:49:02.002Z,2.10
2022-12-27T21:51:32.533Z,2.08
2022-12-27T21:54:04.597Z,2.53
2022-12-27T21:56:34.083Z,2.50
2022-12-27T21:59:04.494Z,1.70
2022-12-27T22:01:50.111Z,2.58
2022-12-27T22:04:21.744Z,2.42
2022-12-27T22:06:49.666Z,2.22
2022-12-27T22:09:18.957Z,2.72
2022-12-27T22:11:52.340Z,2.35
2022-12-27T22:14:25.213Z,2.35
2022-12-27T22:16:55.064Z,2.25
2022-12-27T22:19:25.213Z,2.08
2022-12-27T22:21:58.920Z,2.30
2022-12-27T22:24:26.665Z,2.30
2022-12-27T22:27:01.229Z,2.22
2022-12-27T22:29:34.944Z,2.25
2022-12-27T22:32:04.916Z,2.67
2022-12-27T22:34:32.789Z,2.00
2022-12-27T22:37:00.476Z,2.83
2022-12-27T22:39:28.946Z,2.15
2022-12-27T22:41:58.120Z,2.13
2022-12-27T22:44:26.667Z,2.20
2022-12-27T22:49:42.314Z,2.30
2022-12-27T22:52:10.035Z,1.90
2022-12-27T22:55:03.324Z,1.73
2022-12-27T22:57:26.811Z,2.00
2022-12-27T22:59:54.530Z,1.92
2022-12-27T23:02:22.547Z,2.10
2022-12-27T23:04:50.374Z,2.03
2022-12-27T23:07:20.035Z,2.33
2022-12-27T23:09:47.805Z,2.38
2022-12-27T23:12:16.278Z,2.00
2022-12-27T23:14:45.327Z,1.90
2022-12-27T23:17:13.047Z,2.15
2022-12-27T23:19:40.774Z,2.00
2022-12-27T23:22:08.799Z,2.08
2022-12-27T23:24:36.445Z,1.90
2022-12-27T23:27:04.330Z,1.90
2022-12-27T23:29:32.069Z,2.00
2022-12-27T23:32:01.245Z,1.80
2022-12-27T23:34:29.512Z,1.85
2022-12-27T23:36:57.659Z,1.98
2022-12-27T23:39:25.687Z,1.88
2022-12-27T23:41:53.547Z,1.90
2022-12-27T23:44:33.001Z,2.13
2022-12-27T23:47:03.323Z,2.05
2022-12-27T23:49:31.129Z,1.73
2022-12-27T23:51:58.795Z,1.50
2022-12-27T23:54:26.502Z,2.00
2022-12-27T23:56:54.227Z,1.90
2022-12-27T23:59:22.114Z,1.50
